• Join FlightAware (Why Join?)
  • Login
  • US Flag 
09:56PM EDT


 

Airport Tracker/Info


-or-


 

Live Flight TrackerFlight Track Log ✈ CES5522 ✈ 23-Dec-2013 ✈ ZYMD / MDG - ZSQD / TAO

Flight Track Log - Related Links

Times and Time Zones

All times are in EST time to prevent confusion due to time zone crossing. See the CES5522 flight status page for this flight to view local times or setup timezone preferences in your user account.

Time Position Orientation Groundspeed Altitude Reporting Facility
EST Latitude Longitude Course Direction KTS MPH feet Rate Location/Type
03:18AM 42.5484 127.0712 223° Southwest  Level Estimated
03:19AM 42.4769 126.9849 222° Southwest  Level Estimated
03:20AM 42.4053 126.8989 222° Southwest  Level Estimated
03:21AM 42.3336 126.8130 222° Southwest  Level Estimated
03:22AM 42.2619 126.7274 221° Southwest  Level Estimated
03:23AM 42.1901 126.6419 221° Southwest  Level Estimated
03:24AM 42.1182 126.5567 221° Southwest  Level Estimated
03:25AM 42.0463 126.4716 221° Southwest  Level Estimated
03:26AM 41.9743 126.3867 221° Southwest  Level Estimated
03:27AM 41.9023 126.3021 221° Southwest  Level Estimated
03:28AM 41.8302 126.2176 221° Southwest  Level Estimated
03:29AM 41.7580 126.1333 221° Southwest  Level Estimated
03:30AM 41.6857 126.0492 221° Southwest  Level Estimated
03:31AM 41.6135 125.9652 221° Southwest  Level Estimated
03:32AM 41.5411 125.8815 221° Southwest  Level Estimated
03:33AM 41.4687 125.7980 221° Southwest  Level Estimated
03:34AM 41.3962 125.7146 221° Southwest  Level Estimated
03:35AM 41.3237 125.6314 221° Southwest  Level Estimated
03:36AM 41.2511 125.5484 221° Southwest  Level Estimated
03:37AM 41.1784 125.4656 221° Southwest  Level Estimated
03:38AM 41.1057 125.3830 221° Southwest  Level Estimated
03:39AM 41.0329 125.3006 221° Southwest  Level Estimated
03:40AM 40.9601 125.2183 220° Southwest  Level Estimated
03:41AM 40.8872 125.1362 220° Southwest  Level Estimated
03:42AM 40.8143 125.0543 220° Southwest  Level Estimated
03:43AM 40.7412 124.9726 220° Southwest  Level Estimated
03:44AM 40.6682 124.8911 220° Southwest  Level Estimated
03:45AM 40.5951 124.8097 220° Southwest  Level Estimated
03:46AM 40.5219 124.7285 220° Southwest  Level Estimated
03:47AM 40.4487 124.6475 220° Southwest  Level Estimated
03:48AM 40.3754 124.5667 220° Southwest  Level Estimated
03:49AM 40.3020 124.4860 220° Southwest  Level Estimated
03:50AM 40.2286 124.4056 220° Southwest  Level Estimated
03:51AM 40.1552 124.3253 220° Southwest  Level Estimated
03:52AM 40.0816 124.2451 220° Southwest  Level Estimated
03:53AM 40.0081 124.1652 220° Southwest  Level Estimated
03:54AM 39.9344 124.0854 220° Southwest  Level Estimated
03:55AM 39.8608 124.0058 220° Southwest  Level Estimated
03:56AM 39.7870 123.9264 220° Southwest  Level Estimated
03:57AM 39.7132 123.8471 220° Southwest  Level Estimated
03:58AM 39.6394 123.7680 220° Southwest  Level Estimated
03:59AM 39.5655 123.6890 219° Southwest  Level Estimated
04:00AM 39.4916 123.6103 219° Southwest  Level Estimated
04:01AM 39.4176 123.5317 219° Southwest  Level Estimated
04:02AM 39.3435 123.4533 219° Southwest  Level Estimated
04:03AM 39.2694 123.3750 219° Southwest  Level Estimated
04:04AM 39.1953 123.2969 219° Southwest  Level Estimated
04:05AM 39.1210 123.2190 219° Southwest  Level Estimated
04:06AM 39.0468 123.1412 219° Southwest  Level Estimated
04:07AM 38.9725 123.0636 219° Southwest  Level Estimated
04:08AM 38.8981 122.9862 219° Southwest  Level Estimated
04:09AM 38.8237 122.9089 219° Southwest  Level Estimated
04:10AM 38.7492 122.8317 219° Southwest  Level Estimated
04:11AM 38.6747 122.7548 219° Southwest  Level Estimated
04:12AM 38.6001 122.6780 219° Southwest  Level Estimated
04:13AM 38.5255 122.6013 219° Southwest  Level Estimated
04:14AM 38.4508 122.5249 219° Southwest  Level Estimated
04:15AM 38.3761 122.4485 219° Southwest  Level Estimated
04:16AM 38.3013 122.3724 219° Southwest  Level Estimated
04:17AM 38.2265 122.2964 219° Southwest  Level Estimated
04:18AM 38.1517 122.2205 219° Southwest  Level Estimated
04:19AM 38.0768 122.1448 219° Southwest  Level Estimated
04:20AM 38.0018 122.0693 218° Southwest  Level Estimated
04:21AM 37.9268 121.9939 218° Southwest  Level Estimated
04:22AM 37.8517 121.9187 218° Southwest  Level Estimated
04:23AM 37.7766 121.8436 218° Southwest  Level Estimated
04:24AM 37.7015 121.7687 218° Southwest  Level Estimated
04:25AM 37.6263 121.6939 218° Southwest  Level Estimated
04:26AM 37.5510 121.6193 218° Southwest  Level Estimated
04:27AM 37.4757 121.5448 218° Southwest  Level Estimated
04:28AM 37.4004 121.4705 218° Southwest  Level Estimated
04:29AM 37.3250 121.3963 218° Southwest  Level Estimated
04:30AM 37.2496 121.3223 218° Southwest  Level Estimated
04:31AM 37.1741 121.2484 218° Southwest  Level Estimated
04:32AM 37.0985 121.1747 218° Southwest  Level Estimated
04:33AM 37.0230 121.1011 218° Southwest  Level Estimated
04:34AM 36.9474 121.0276 218° Southwest  Level Estimated
04:35AM 36.8717 120.9544 218° Southwest  Level Estimated
04:36AM 36.7960 120.8812 218° Southwest  Level Estimated
04:37AM 36.7202 120.8082 218° Southwest  Level Estimated
04:38AM 36.6444 120.7354 218° Southwest  Level Estimated
04:39AM 36.5686 120.6626 218° Southwest  Level Estimated
04:40AM 36.4927 120.5901 218° Southwest  Level Estimated
04:41AM 36.4140 120.5150 218° Southwest  Level Estimated
04:42AM 36.3353 120.4400 217° Southwest  Level Estimated
04:43AM 36.2661 120.3744 217° Southwest  Level Estimated
04:44AM 36.2661 120.3744 238° Southwest  Level Estimated
04:45AM 36.2661 120.3744 238° Southwest  Level Estimated
04:46AM 36.2661 120.3744 238° Southwest  Level Estimated
04:47AM 36.2661 120.3744 238° Southwest  Level Estimated
04:48AM 36.2661 120.3744 238° Southwest  Level Estimated
04:49AM 36.2661 120.3744 238° Southwest  Level Estimated
04:50AM 36.2661 120.3744 238° Southwest  Level Estimated
04:51AM 36.2661 120.3744 238° Southwest  Level Estimated
04:52AM 36.2661 120.3744 238° Southwest  Level Estimated
04:53AM 36.2661 120.3744 238° Southwest  Level Estimated
04:54AM 36.2661 120.3744 238° Southwest  Level Estimated
04:55AM 36.2661 120.3744 238° Southwest  Level Estimated